Time;durP1;ratioP1;P1;durP2;ratioP2;P2;SDS_P1;SDS_P2;PMS_P1;PMS_P2;Temp;Humidity;BMP_temperature;BMP_pressure;BME280_temperature;BME280_humidity;BME280_pressure;Samples;Min_cycle;Max_cycle;Signal;HPM_P1;HPM_P2
2021/07/05 00:02:11;;;;;;;5.97;5.47;;;;;;;18.44;69.02;100918.53;3560499;40;20249;-78
2021/07/05 00:04:37;;;;;;;6.40;5.80;;;;;;;18.36;69.29;100916.03;3562151;40;20234;-78
2021/07/05 00:07:04;;;;;;;5.30;4.90;;;;;;;18.34;69.00;100924.69;3562828;40;20220;-78
2021/07/05 00:09:29;;;;;;;6.00;5.40;;;;;;;18.24;69.99;100923.88;3553148;40;20625;-80
2021/07/05 00:11:54;;;;;;;4.97;4.43;;;;;;;18.21;69.60;100921.34;3554321;40;20259;-80
2021/07/05 00:14:20;;;;;;;4.43;4.03;;;;;;;18.18;69.01;100925.69;3563917;40;20573;-80
2021/07/05 00:16:45;;;;;;;4.50;4.10;;;;;;;18.12;69.35;100929.22;3563768;40;20239;-80
2021/07/05 00:19:11;;;;;;;5.00;4.53;;;;;;;18.14;69.48;100935.22;3555951;40;20250;-79
2021/07/05 00:21:36;;;;;;;6.27;5.67;;;;;;;18.13;70.23;100937.84;3565397;40;20253;-80
2021/07/05 00:24:02;;;;;;;5.53;5.03;;;;;;;18.15;69.85;100930.91;3563478;40;20262;-79
2021/07/05 00:26:27;;;;;;;4.90;4.50;;;;;;;18.08;69.79;100916.28;3554422;40;20222;-79
2021/07/05 00:28:52;;;;;;;4.90;4.50;;;;;;;18.02;69.82;100924.13;3563489;40;20246;-80
2021/07/05 00:31:18;;;;;;;6.43;5.33;;;;;;;17.96;69.86;100927.63;3563973;40;20543;-77
2021/07/05 00:33:43;;;;;;;5.53;4.33;;;;;;;17.91;69.76;100926.81;3563543;40;20211;-78
2021/07/05 00:36:08;;;;;;;5.63;4.80;;;;;;;17.93;69.67;100932.84;3563419;40;20235;-79
2021/07/05 00:38:33;;;;;;;4.53;4.13;;;;;;;17.94;70.13;100928.50;3554100;40;20592;-78
2021/07/05 00:40:59;;;;;;;4.47;4.07;;;;;;;17.88;70.12;100931.16;3554217;40;20243;-79
2021/07/05 00:43:24;;;;;;;4.90;4.30;;;;;;;17.89;69.86;100925.09;3563148;40;20203;-77
2021/07/05 00:45:50;;;;;;;6.23;5.23;;;;;;;17.94;69.87;100931.09;3563596;40;20255;-81
2021/07/05 00:48:15;;;;;;;4.57;4.17;;;;;;;17.91;69.77;100919.03;3563352;40;20226;-78
2021/07/05 00:50:40;;;;;;;5.17;4.60;;;;;;;17.95;70.02;100918.13;3553318;40;20329;-78
2021/07/05 00:53:06;;;;;;;4.73;4.33;;;;;;;17.94;70.41;100919.03;3561647;40;20223;-81
2021/07/05 00:55:32;;;;;;;5.60;5.10;;;;;;;17.98;70.10;100917.25;3552973;40;20812;-78
2021/07/05 00:57:58;;;;;;;6.55;5.95;;;;;;;18.04;69.87;100915.47;3563643;40;20226;-82
2021/07/05 01:00:25;;;;;;;5.83;5.23;;;;;;;18.05;70.21;100914.59;3555280;40;20231;-78
2021/07/05 01:02:51;;;;;;;5.17;4.67;;;;;;;18.09;69.85;100918.00;3554784;40;20224;-81
2021/07/05 01:05:18;;;;;;;6.10;5.47;;;;;;;18.04;70.38;100915.47;3554382;40;20251;-79
2021/07/05 01:07:45;;;;;;;5.43;4.93;;;;;;;18.09;70.25;100913.69;3554148;40;20219;-78
2021/07/05 01:10:12;;;;;;;7.27;5.33;;;;;;;18.15;69.78;100915.38;3562677;40;20245;-81
2021/07/05 01:12:38;;;;;;;5.23;4.57;;;;;;;18.11;69.99;100919.72;3563089;40;20305;-78
2021/07/05 01:15:09;;;;;;;4.90;4.50;;;;;;;18.14;70.36;100918.84;3562353;40;20223;-78
2021/07/05 01:17:35;;;;;;;6.47;5.17;;;;;;;18.18;69.89;100917.91;3561270;40;20618;-80
2021/07/05 01:20:01;;;;;;;4.63;4.23;;;;;;;18.19;69.91;100915.31;3561339;40;20242;-78
2021/07/05 01:22:26;;;;;;;5.47;4.73;;;;;;;18.18;69.95;100912.72;3551813;40;20267;-78
2021/07/05 01:24:51;;;;;;;5.57;5.07;;;;;;;18.15;69.80;100913.59;3561440;40;20310;-79
2021/07/05 01:27:17;;;;;;;5.07;4.47;;;;;;;18.19;69.93;100911.88;3561142;40;20625;-78
2021/07/05 01:29:43;;;;;;;4.17;3.77;;;;;;;18.16;69.76;100915.34;3551162;40;20235;-78
2021/07/05 01:32:09;;;;;;;6.10;5.60;;;;;;;18.35;69.29;100914.31;3560301;40;20231;-78
2021/07/05 01:34:35;;;;;;;6.55;5.95;;;;;;;18.35;68.82;100905.66;3561084;40;20312;-78
2021/07/05 01:37:02;;;;;;;5.90;5.17;;;;;;;18.28;69.41;100909.19;3556456;40;20236;-80
2021/07/05 01:39:27;;;;;;;4.93;3.90;;;;;;;18.19;69.81;100911.88;3552390;40;20674;-80
2021/07/05 01:41:53;;;;;;;4.40;4.00;;;;;;;18.15;69.98;100902.41;3555563;40;20249;-78
2021/07/05 01:44:21;;;;;;;6.20;5.70;;;;;;;18.09;70.38;100900.72;3562708;40;20219;-77
2021/07/05 01:46:46;;;;;;;6.37;5.87;;;;;;;17.96;71.42;100890.50;3554248;40;20305;-77
2021/07/05 01:49:12;;;;;;;4.30;3.97;;;;;;;17.93;70.99;100891.41;3552667;40;20227;-79
2021/07/05 01:51:37;;;;;;;6.80;6.10;;;;;;;17.85;71.71;100884.53;3560615;40;20239;-78
2021/07/05 01:54:04;;;;;;;5.57;5.07;;;;;;;17.84;71.98;100888.88;3551411;40;20272;-78
2021/07/05 01:56:30;;;;;;;6.43;5.73;;;;;;;17.78;71.85;100883.75;3560049;40;20235;-78
2021/07/05 01:58:56;;;;;;;8.30;7.33;;;;;;;17.88;71.19;100876.75;3560346;40;20227;-78
2021/07/05 02:01:21;;;;;;;7.23;6.47;;;;;;;17.79;71.93;100882.91;3560827;40;20242;-78
2021/07/05 02:03:46;;;;;;;9.30;8.17;;;;;;;17.88;71.19;100888.00;3560982;40;20237;-78
2021/07/05 02:06:12;;;;;;;9.40;8.50;;;;;;;17.78;71.81;100888.94;3561611;40;20230;-78
2021/07/05 02:08:39;;;;;;;7.23;6.53;;;;;;;17.88;71.27;100898.34;3551398;40;20584;-77
2021/07/05 02:11:04;;;;;;;12.97;9.27;;;;;;;17.76;72.05;100895.00;3560348;40;20241;-77
2021/07/05 02:13:32;;;;;;;7.63;6.93;;;;;;;17.84;71.20;100883.72;3560241;40;20219;-77
2021/07/05 02:16:00;;;;;;;8.10;6.67;;;;;;;17.93;71.35;100888.81;3551124;40;20263;-77
2021/07/05 02:18:26;;;;;;;6.60;6.00;;;;;;;17.84;71.73;100888.88;3560381;40;20731;-77
2021/07/05 02:20:53;;;;;;;9.83;8.40;;;;;;;17.87;71.96;100877.63;3560757;40;20240;-79
2021/07/05 02:23:20;;;;;;;7.30;6.60;;;;;;;17.92;71.59;100876.69;3560762;40;20235;-77
2021/07/05 02:25:47;;;;;;;7.30;6.60;;;;;;;18.17;71.06;100878.19;3560671;40;20227;-79
2021/07/05 02:28:16;;;;;;;7.60;6.67;;;;;;;18.29;70.93;100877.19;3560272;40;20227;-78
2021/07/05 02:30:43;;;;;;;6.97;6.17;;;;;;;18.46;70.61;100877.84;3560610;40;20255;-77
2021/07/05 02:33:11;;;;;;;7.03;6.33;;;;;;;18.23;71.85;100882.44;3561027;40;20301;-77
2021/07/05 02:35:37;;;;;;;7.00;6.30;;;;;;;18.37;71.36;100870.22;3560940;40;20228;-78
2021/07/05 02:38:08;;;;;;;6.30;5.63;;;;;;;18.43;70.91;100872.72;3552054;40;20246;-80
2021/07/05 02:40:37;;;;;;;6.17;5.57;;;;;;;18.36;71.48;100881.44;3560782;40;20259;-77
2021/07/05 02:43:03;;;;;;;6.00;5.40;;;;;;;18.47;72.08;100890.81;3560918;40;20239;-79
2021/07/05 02:45:31;;;;;;;7.07;6.00;;;;;;;18.48;71.55;100889.97;3551716;40;20494;-80
2021/07/05 02:48:00;;;;;;;6.37;5.80;;;;;;;18.44;71.46;100884.81;3560896;40;20696;-79
2021/07/05 02:50:26;;;;;;;6.20;5.60;;;;;;;18.35;72.08;100896.16;3560150;40;20661;-81
2021/07/05 02:52:52;;;;;;;5.50;5.00;;;;;;;18.26;71.88;100893.63;3562117;40;20309;-79
2021/07/05 02:55:18;;;;;;;6.47;4.97;;;;;;;18.28;72.07;100891.03;3561998;40;20239;-78
2021/07/05 02:57:44;;;;;;;5.33;4.83;;;;;;;18.46;71.76;100889.09;3553143;40;20218;-77
2021/07/05 03:00:18;;;;;;;6.40;5.80;;;;;;;18.30;72.63;100882.34;3560540;40;20227;-78
2021/07/05 03:02:45;;;;;;;5.70;5.20;;;;;;;18.25;72.84;100886.75;3560919;40;20223;-78
2021/07/05 03:05:11;;;;;;;6.03;5.43;;;;;;;18.27;73.39;100892.75;3561052;40;20310;-79
2021/07/05 03:07:37;;;;;;;5.53;5.03;;;;;;;18.36;72.76;100889.22;3559702;40;20247;-81
2021/07/05 03:10:08;;;;;;;5.07;4.67;;;;;;;18.28;73.23;100891.88;3550575;40;20238;-80
2021/07/05 03:12:33;;;;;;;6.53;5.87;;;;;;;18.27;73.49;100890.16;3550454;40;20629;-79
2021/07/05 03:14:58;;;;;;;6.23;5.63;;;;;;;18.31;73.48;100891.84;3550689;40;20219;-80
2021/07/05 03:17:24;;;;;;;6.13;5.60;;;;;;;18.25;73.90;100901.41;3559822;40;20234;-77
2021/07/05 03:19:49;;;;;;;7.00;5.93;;;;;;;18.23;73.91;100896.25;3550529;40;20220;-80
2021/07/05 03:22:16;;;;;;;7.20;6.50;;;;;;;18.36;73.53;100897.88;3560671;40;20239;-77
2021/07/05 03:24:42;;;;;;;6.90;6.27;;;;;;;18.41;73.28;100896.09;3551106;40;20238;-78
2021/07/05 03:27:07;;;;;;;7.43;6.60;;;;;;;18.58;73.03;100894.16;3559778;40;20215;-81
2021/07/05 03:29:32;;;;;;;7.70;7.00;;;;;;;18.77;72.00;100900.81;3550720;40;20247;-78
2021/07/05 03:31:59;;;;;;;8.83;7.10;;;;;;;18.57;72.71;100899.34;3559586;40;20242;-80
2021/07/05 03:34:25;;;;;;;8.60;7.73;;;;;;;18.52;73.01;100896.81;3559911;40;20575;-77
2021/07/05 03:36:50;;;;;;;7.80;7.00;;;;;;;18.50;73.55;100895.97;3550529;40;20231;-79
2021/07/05 03:39:16;;;;;;;10.40;9.30;;;;;;;18.32;73.53;100903.94;3550446;40;20625;-78
2021/07/05 03:41:41;;;;;;;9.63;8.10;;;;;;;18.33;73.62;100902.25;3560407;40;20251;-77
2021/07/05 03:44:06;;;;;;;7.87;7.13;;;;;;;18.42;73.32;100895.19;3551534;40;20231;-77
2021/07/05 03:46:32;;;;;;;8.87;7.30;;;;;;;18.47;73.22;100902.94;3553589;40;20246;-80
2021/07/05 03:48:57;;;;;;;8.80;7.77;;;;;;;18.45;73.49;100902.09;3561272;40;20275;-80
2021/07/05 03:51:22;;;;;;;8.03;6.83;;;;;;;18.38;73.84;100893.50;3551798;40;20536;-79
2021/07/05 03:53:48;;;;;;;11.80;8.30;;;;;;;18.68;72.75;100898.34;3552016;40;20321;-77
2021/07/05 03:56:13;;;;;;;9.13;8.13;;;;;;;18.44;73.53;100898.66;3551588;40;20475;-78
2021/07/05 03:58:38;;;;;;;9.23;8.23;;;;;;;18.36;74.30;100894.41;3551386;40;20231;-78
2021/07/05 04:01:03;;;;;;;8.90;8.03;;;;;;;18.33;73.96;100903.09;3560235;40;20677;-81
2021/07/05 04:03:29;;;;;;;10.33;9.23;;;;;;;18.35;73.93;100906.53;3561113;40;20281;-78
2021/07/05 04:05:54;;;;;;;13.30;9.80;;;;;;;18.37;73.59;100897.00;3552253;40;20219;-79
2021/07/05 04:08:26;;;;;;;11.37;10.17;;;;;;;18.50;73.53;100895.09;3551717;40;20231;-78
2021/07/05 04:10:51;;;;;;;11.53;10.17;;;;;;;18.62;73.16;100908.81;3561075;40;20247;-79
2021/07/05 04:13:16;;;;;;;12.97;11.53;;;;;;;18.70;72.91;100908.72;3561279;40;20313;-78
2021/07/05 04:15:42;;;;;;;11.87;10.50;;;;;;;18.75;72.91;100912.09;3560747;40;20246;-78
2021/07/05 04:18:07;;;;;;;13.47;11.93;;;;;;;18.53;73.43;100905.44;3551549;40;20232;-80
2021/07/05 04:20:33;;;;;;;13.70;12.30;;;;;;;18.59;73.42;100907.97;3560936;40;20616;-78
2021/07/05 04:22:59;;;;;;;14.40;12.63;;;;;;;18.48;73.78;100915.91;3561600;40;20239;-78
2021/07/05 04:25:25;;;;;;;14.70;12.80;;;;;;;18.41;74.09;100924.59;3560965;40;20239;-79
2021/07/05 04:27:52;;;;;;;16.07;13.30;;;;;;;18.40;74.30;100917.72;3562108;40;20517;-80
2021/07/05 04:30:19;;;;;;;15.37;13.77;;;;;;;18.64;73.79;100921.72;3553581;40;20235;-81
2021/07/05 04:32:46;;;;;;;14.63;13.20;;;;;;;18.68;73.13;100913.03;3562628;40;20235;-80
2021/07/05 04:35:14;;;;;;;15.27;13.67;;;;;;;18.66;72.82;100912.22;3561945;40;20251;-79
2021/07/05 04:37:40;;;;;;;15.13;13.53;;;;;;;18.57;73.42;100907.97;3562491;40;20238;-77
2021/07/05 04:40:08;;;;;;;13.97;12.53;;;;;;;18.52;73.28;100916.72;3561542;40;20234;-77
2021/07/05 04:42:34;;;;;;;16.50;13.80;;;;;;;18.57;73.48;100910.56;3552056;40;20320;-78
2021/07/05 04:44:59;;;;;;;16.60;13.33;;;;;;;18.65;73.22;100907.91;3561008;40;20845;-77
2021/07/05 04:47:24;;;;;;;15.03;13.37;;;;;;;18.62;73.28;100908.81;3552045;40;20225;-80
2021/07/05 04:49:50;;;;;;;15.23;13.63;;;;;;;18.69;73.17;100914.75;3561498;40;20227;-77
2021/07/05 04:52:15;;;;;;;14.40;13.00;;;;;;;18.66;72.72;100904.44;3552258;40;20622;-78
2021/07/05 04:54:40;;;;;;;15.10;13.43;;;;;;;18.56;73.11;100914.03;3562213;40;20218;-81
2021/07/05 04:57:06;;;;;;;15.13;13.57;;;;;;;18.50;73.54;100903.75;3558901;40;20555;-77
2021/07/05 04:59:36;;;;;;;15.60;13.37;;;;;;;18.64;72.64;100900.97;3551985;40;20228;-78
2021/07/05 05:02:01;;;;;;;14.70;13.07;;;;;;;18.80;72.33;100910.31;3551908;40;20256;-79
2021/07/05 05:04:26;;;;;;;13.67;12.37;;;;;;;18.76;72.16;100903.44;3542875;40;20240;-79
2021/07/05 05:06:52;;;;;;;14.30;12.77;;;;;;;18.75;71.99;100899.97;3552037;40;20510;-80
2021/07/05 05:09:17;;;;;;;15.10;13.50;;;;;;;18.66;72.13;100896.66;3551429;40;20615;-80
2021/07/05 05:11:42;;;;;;;15.57;12.53;;;;;;;18.78;71.88;100897.34;3542381;40;20258;-77
2021/07/05 05:14:08;;;;;;;17.00;13.30;;;;;;;18.83;71.21;100897.31;3557243;40;20324;-77
2021/07/05 05:16:33;;;;;;;13.97;12.57;;;;;;;18.82;71.79;100896.44;3561377;40;20222;-80
2021/07/05 05:18:59;;;;;;;14.70;13.17;;;;;;;18.77;71.24;100895.63;3561518;40;20516;-79
2021/07/05 05:21:24;;;;;;;16.23;13.53;;;;;;;18.79;71.02;100898.22;3561346;40;20243;-77
2021/07/05 05:23:50;;;;;;;14.67;13.13;;;;;;;18.63;72.04;100902.75;3552102;40;20247;-78
2021/07/05 05:26:15;;;;;;;15.13;12.70;;;;;;;18.60;71.62;100902.75;3568573;40;20593;-77
2021/07/05 05:28:41;;;;;;;13.60;12.10;;;;;;;18.56;72.11;100900.25;3551734;40;20242;-78
2021/07/05 05:31:06;;;;;;;14.00;12.70;;;;;;;18.85;71.21;100905.91;3568393;40;20247;-76
2021/07/05 05:33:31;;;;;;;15.73;13.40;;;;;;;18.77;71.58;100905.13;3561049;40;20227;-79
2021/07/05 05:35:56;;;;;;;15.57;13.23;;;;;;;18.86;71.66;100905.91;3560985;40;20227;-78
2021/07/05 05:38:22;;;;;;;14.73;13.27;;;;;;;18.87;71.51;100902.41;3561074;40;20219;-80
2021/07/05 05:40:47;;;;;;;13.20;11.80;;;;;;;18.74;71.88;100900.84;3601714;23;20544;-76
2021/07/05 05:43:12;;;;;;;14.47;12.50;;;;;;;18.84;71.81;100901.59;3560982;40;20254;-77
2021/07/05 05:45:38;;;;;;;17.20;12.87;;;;;;;18.99;71.33;100904.84;3560820;40;20242;-78
2021/07/05 05:48:04;;;;;;;14.60;12.23;;;;;;;19.10;70.05;100912.47;3560651;40;20239;-76
2021/07/05 05:50:29;;;;;;;15.27;13.23;;;;;;;18.97;70.44;100919.56;3560918;40;20329;-78
2021/07/05 05:52:55;;;;;;;15.17;12.90;;;;;;;19.03;70.26;100921.25;3562624;40;20231;-77
2021/07/05 05:55:20;;;;;;;14.60;11.90;;;;;;;19.02;70.26;100917.78;3560747;40;20219;-80
2021/07/05 05:57:46;;;;;;;14.40;12.90;;;;;;;19.17;69.80;100922.75;3560997;40;20227;-77
2021/07/05 06:00:20;;;;;;;14.57;12.97;;;;;;;19.16;69.82;100926.22;3561157;40;20299;-77
2021/07/05 06:02:47;;;;;;;14.30;12.10;;;;;;;19.08;68.99;100922.03;3552107;40;20238;-79
2021/07/05 06:05:13;;;;;;;14.37;12.57;;;;;;;19.10;69.07;100923.72;3560747;40;20212;-77
2021/07/05 06:07:39;;;;;;;13.87;12.37;;;;;;;19.15;68.91;100913.25;3561182;40;20345;-78
2021/07/05 06:10:06;;;;;;;16.90;12.50;;;;;;;19.31;68.36;100915.69;3559145;40;20246;-78
2021/07/05 06:12:31;;;;;;;13.83;12.33;;;;;;;19.28;68.98;100918.31;3560474;40;20231;-78
2021/07/05 06:14:57;;;;;;;15.10;13.00;;;;;;;19.45;68.43;100916.31;3560499;40;20278;-76
2021/07/05 06:17:22;;;;;;;13.07;11.87;;;;;;;19.31;68.30;100912.22;3560652;40;20279;-80
2021/07/05 06:19:48;;;;;;;14.43;12.93;;;;;;;19.24;68.43;100914.03;3551341;40;20239;-77
2021/07/05 06:22:16;;;;;;;18.30;12.53;;;;;;;19.08;69.29;100922.91;3561068;40;20242;-77
2021/07/05 06:24:46;;;;;;;14.47;12.97;;;;;;;19.35;69.33;100913.88;3561069;40;20499;-80
2021/07/05 06:27:11;;;;;;;13.73;12.17;;;;;;;19.44;68.95;100917.19;3568227;40;20305;-79
2021/07/05 06:29:36;;;;;;;16.00;14.30;;;;;;;19.24;68.91;100915.75;3560731;40;20247;-77
2021/07/05 06:32:02;;;;;;;12.27;10.87;;;;;;;19.23;69.49;100911.44;3558594;40;20253;-79
2021/07/05 06:34:27;;;;;;;14.10;12.73;;;;;;;19.64;67.50;100903.88;3560655;40;20648;-78
2021/07/05 06:36:52;;;;;;;14.53;12.87;;;;;;;19.54;67.22;100904.91;3560821;40;20226;-78
2021/07/05 06:39:17;;;;;;;16.87;14.77;;;;;;;19.49;68.13;100915.38;3561001;40;20229;-77
2021/07/05 06:41:43;;;;;;;17.07;15.30;;;;;;;19.64;67.30;100909.06;3560934;40;20247;-77
2021/07/05 06:44:08;;;;;;;16.17;14.43;;;;;;;19.81;67.94;100910.50;3560129;40;20227;-80
2021/07/05 06:46:34;;;;;;;21.47;15.27;;;;;;;19.94;66.13;100911.16;3561272;40;20265;-80
2021/07/05 06:49:00;;;;;;;15.73;14.10;;;;;;;20.03;66.47;100909.25;3551579;40;20262;-77
2021/07/05 06:51:25;;;;;;;21.60;14.73;;;;;;;19.83;66.13;100906.16;3561556;40;20246;-77
2021/07/05 06:53:50;;;;;;;17.77;16.03;;;;;;;19.58;66.51;100917.81;3568835;40;20238;-79
2021/07/05 06:56:16;;;;;;;16.70;15.10;;;;;;;19.81;66.55;100920.06;3560689;40;20299;-77
2021/07/05 06:58:41;;;;;;;17.03;14.43;;;;;;;19.84;66.60;100917.38;3551687;40;20328;-79
2021/07/05 07:01:06;;;;;;;17.97;16.07;;;;;;;19.51;67.07;100907.56;3560705;40;20246;-78
2021/07/05 07:03:31;;;;;;;16.70;15.00;;;;;;;19.54;67.12;100903.19;3549835;40;20232;-78
2021/07/05 07:05:57;;;;;;;17.47;15.70;;;;;;;19.88;65.36;100906.06;3551930;40;20227;-80
2021/07/05 07:08:23;;;;;;;18.60;16.77;;;;;;;19.85;65.37;100903.53;3560909;40;20227;-78
2021/07/05 07:10:48;;;;;;;20.53;17.20;;;;;;;20.15;64.41;100910.81;3560189;40;20250;-78
2021/07/05 07:13:14;;;;;;;17.60;15.83;;;;;;;20.24;65.11;100908.91;3560910;40;20296;-79
2021/07/05 07:15:41;;;;;;;17.93;16.23;;;;;;;20.60;63.23;100902.09;3560508;40;20223;-79
2021/07/05 07:20:31;;;;;;;17.20;14.53;;;;;;;20.41;63.90;100906.81;3560373;40;20253;-77
2021/07/05 07:22:57;;;;;;;17.77;16.07;;;;;;;20.15;64.54;100903.00;3559786;40;20235;-79
2021/07/05 07:25:22;;;;;;;18.17;16.27;;;;;;;19.93;65.32;100889.50;3551194;40;20230;-80
2021/07/05 07:27:48;;;;;;;18.47;16.53;;;;;;;19.98;65.05;100892.00;3558841;40;20522;-80
2021/07/05 07:30:14;;;;;;;17.93;16.13;;;;;;;20.14;64.38;100886.56;3557721;40;20234;-78
2021/07/05 07:32:40;;;;;;;17.30;15.50;;;;;;;20.34;64.08;100883.53;3559758;40;20309;-78
2021/07/05 07:35:06;;;;;;;18.10;16.30;;;;;;;20.52;63.71;100878.84;3558955;40;20230;-78
2021/07/05 07:37:33;;;;;;;17.13;15.33;;;;;;;20.86;62.32;100879.00;3560286;40;20806;-80
2021/07/05 07:40:04;;;;;;;23.87;14.87;;;;;;;20.97;62.19;100870.09;3560225;40;20505;-79
2021/07/05 07:42:29;;;;;;;18.60;15.50;;;;;;;21.04;62.15;100887.28;3559563;40;20251;-78
2021/07/05 07:44:54;;;;;;;16.03;14.43;;;;;;;20.85;61.50;100882.47;3560185;40;20917;-79
2021/07/05 07:47:20;;;;;;;14.77;13.13;;;;;;;21.08;59.69;100881.13;3560413;40;20222;-79
2021/07/05 07:49:45;;;;;;;13.33;12.13;;;;;;;21.30;59.42;100878.88;3560363;40;20313;-78
2021/07/05 07:52:11;;;;;;;11.70;10.50;;;;;;;21.45;58.48;100881.09;3559811;40;20250;-78
2021/07/05 07:54:36;;;;;;;11.40;10.20;;;;;;;21.28;58.33;100883.25;3560473;40;20317;-77
2021/07/05 07:57:02;;;;;;;13.33;10.67;;;;;;;21.43;58.50;100882.91;3562008;40;20655;-77
2021/07/05 07:59:27;;;;;;;12.17;11.07;;;;;;;21.18;58.45;100882.59;3558875;40;20278;-78
2021/07/05 08:01:53;;;;;;;11.77;10.70;;;;;;;21.56;58.15;100881.72;3560284;40;20262;-79
2021/07/05 08:04:18;;;;;;;10.97;9.93;;;;;;;22.14;58.12;100874.97;3550936;40;20215;-79
2021/07/05 08:06:43;;;;;;;10.40;9.40;;;;;;;22.66;54.87;100873.53;3559619;40;20224;-78
2021/07/05 08:09:09;;;;;;;10.47;8.67;;;;;;;23.52;52.97;100859.47;3550767;40;20231;-82
2021/07/05 08:11:35;;;;;;;11.47;10.43;;;;;;;24.39;49.74;100852.91;3559498;40;20964;-78
2021/07/05 08:14:03;;;;;;;10.50;9.17;;;;;;;24.54;49.22;100858.44;3560380;40;20316;-78
2021/07/05 08:16:29;;;;;;;10.40;9.50;;;;;;;25.13;47.80;100846.53;3551512;40;20845;-78
2021/07/05 08:18:55;;;;;;;10.23;9.33;;;;;;;24.83;49.30;100849.50;3560248;40;20220;-78
2021/07/05 08:21:21;;;;;;;9.85;8.95;;;;;;;24.58;49.34;100841.69;3560454;40;20246;-77
2021/07/05 08:23:46;;;;;;;8.90;8.00;;;;;;;24.87;48.61;100836.22;3550995;40;20599;-79
2021/07/05 08:26:12;;;;;;;10.30;8.85;;;;;;;24.73;48.46;100837.69;3551312;40;20215;-79
2021/07/05 08:28:37;;;;;;;10.65;9.00;;;;;;;24.46;49.14;100836.06;3561986;40;20235;-81
2021/07/05 08:31:04;;;;;;;10.13;9.05;;;;;;;24.83;48.35;100841.66;3562138;40;20247;-78
2021/07/05 08:33:31;;;;;;;10.48;9.48;;;;;;;25.13;48.89;100838.66;3561817;40;20625;-80
2021/07/05 08:35:57;;;;;;;8.65;7.78;;;;;;;26.03;46.16;100841.91;3561716;40;20585;-80
2021/07/05 08:38:22;;;;;;;10.32;9.25;;;;;;;26.01;47.68;100839.34;3562308;40;20231;-79
2021/07/05 08:40:48;;;;;;;11.50;8.52;;;;;;;26.17;46.04;100829.88;3552546;40;20625;-80
2021/07/05 08:43:14;;;;;;;9.60;8.73;;;;;;;26.49;45.34;100828.41;3561735;40;20242;-79
2021/07/05 08:45:43;;;;;;;10.00;9.13;;;;;;;26.21;45.90;100828.81;3552402;40;20239;-77
2021/07/05 08:48:10;;;;;;;8.48;7.68;;;;;;;25.77;46.26;100834.25;3561821;40;20634;-79
2021/07/05 08:50:35;;;;;;;7.53;6.82;;;;;;;25.72;46.88;100838.84;3562105;40;20718;-77
2021/07/05 08:53:01;;;;;;;8.13;7.13;;;;;;;25.77;47.35;100835.13;3561535;40;20246;-78
2021/07/05 08:55:29;;;;;;;9.63;8.27;;;;;;;25.37;47.78;100829.84;3561244;40;20222;-78
2021/07/05 08:57:55;;;;;;;8.88;7.95;;;;;;;25.32;47.60;100828.34;3560926;40;20231;-78
2021/07/05 09:00:23;;;;;;;7.97;7.38;;;;;;;25.34;47.75;100834.34;3559928;40;20246;-78
2021/07/05 09:02:49;;;;;;;9.40;8.57;;;;;;;25.02;49.40;100835.63;3561318;40;20594;-79
2021/07/05 09:05:15;;;;;;;9.23;8.30;;;;;;;24.53;50.93;100848.88;3560248;40;20612;-79
2021/07/05 09:07:57;;;;;;;9.57;8.68;;;;;;;24.13;51.12;100840.78;3550978;40;20223;-80
2021/07/05 09:10:24;;;;;;;9.02;8.27;;;;;;;24.67;51.09;100837.94;3553984;40;20298;-78
2021/07/05 09:13:13;;;;;;;8.98;8.07;;;;;;;24.79;50.44;100834.81;3551381;40;20224;-78
2021/07/05 09:15:44;;;;;;;8.15;7.45;;;;;;;24.73;49.51;100841.13;3559464;40;20343;-78
2021/07/05 09:18:33;;;;;;;9.45;8.55;;;;;;;24.10;50.86;100838.28;3560849;40;20235;-77
2021/07/05 09:21:23;;;;;;;7.38;6.78;;;;;;;24.53;49.91;100838.41;3560694;40;20712;-78
2021/07/05 09:24:06;;;;;;;7.90;7.10;;;;;;;24.42;49.38;100842.34;3561018;40;20234;-78
2021/07/05 09:26:41;;;;;;;7.10;6.50;;;;;;;25.54;48.25;100831.75;3560685;40;20238;-77
2021/07/05 09:29:21;;;;;;;6.00;5.45;;;;;;;25.58;47.43;100822.84;3561237;40;20230;-81
2021/07/05 09:31:59;;;;;;;6.63;5.45;;;;;;;26.20;45.49;100829.72;3561007;40;20750;-78
2021/07/05 09:34:31;;;;;;;7.32;6.72;;;;;;;26.26;45.53;100832.09;3560150;40;20521;-76
2021/07/05 09:37:11;;;;;;;6.68;6.05;;;;;;;26.02;45.99;100835.78;3560996;40;20274;-78
2021/07/05 09:39:36;;;;;;;6.93;6.30;;;;;;;25.53;46.77;100833.53;3559113;40;20245;-79
2021/07/05 09:42:09;;;;;;;5.90;5.43;;;;;;;25.41;47.41;100838.44;3560847;40;20235;-78
2021/07/05 09:44:44;;;;;;;6.10;5.53;;;;;;;25.63;47.39;100839.25;3560697;40;20509;-80
2021/07/05 09:47:17;;;;;;;6.03;5.50;;;;;;;25.27;47.77;100843.41;3560925;40;20668;-75
2021/07/05 09:49:43;;;;;;;6.82;5.60;;;;;;;25.19;47.78;100840.19;3560587;40;20223;-78
2021/07/05 09:52:17;;;;;;;7.35;6.78;;;;;;;25.14;47.38;100839.53;3561029;40;20630;-78
2021/07/05 09:54:47;;;;;;;6.60;6.00;;;;;;;25.42;47.78;100837.53;3560680;40;20246;-76
2021/07/05 09:57:26;;;;;;;7.18;6.47;;;;;;;25.09;48.45;100842.31;3560524;40;20259;-79
2021/07/05 09:59:53;;;;;;;7.70;7.00;;;;;;;24.54;50.62;100844.50;3560614;40;20598;-76
2021/07/05 10:02:18;;;;;;;7.22;6.45;;;;;;;24.46;49.37;100849.16;3551521;40;20267;-79
2021/07/05 10:04:46;;;;;;;7.25;6.38;;;;;;;24.05;50.34;100857.66;3561997;40;20309;-76
2021/07/05 10:07:11;;;;;;;6.35;5.85;;;;;;;24.02;50.74;100855.16;3558843;40;20239;-76
2021/07/05 10:09:42;;;;;;;6.53;5.93;;;;;;;24.08;50.85;100847.94;3558418;40;20293;-77
2021/07/05 10:12:18;;;;;;;6.40;5.60;;;;;;;24.18;50.61;100848.47;3560244;40;20242;-77
2021/07/05 10:14:52;;;;;;;6.10;5.60;;;;;;;24.40;49.55;100841.56;3551453;40;20239;-80
2021/07/05 10:17:17;;;;;;;5.65;5.25;;;;;;;25.46;47.16;100841.75;3559537;40;20272;-77
2021/07/05 10:19:43;;;;;;;5.35;4.55;;;;;;;25.94;45.76;100835.28;3560590;40;20239;-76
2021/07/05 10:22:11;;;;;;;5.95;5.45;;;;;;;26.52;44.95;100834.38;3560574;40;20243;-77
2021/07/05 10:24:37;;;;;;;5.03;4.63;;;;;;;26.38;45.07;100835.94;3560576;40;20783;-76
2021/07/05 10:27:03;;;;;;;6.38;5.28;;;;;;;26.94;44.37;100840.28;3559746;40;20290;-77
2021/07/05 10:29:31;;;;;;;5.55;5.15;;;;;;;26.87;44.14;100831.00;3559698;40;20493;-78
2021/07/05 10:31:56;;;;;;;5.22;4.82;;;;;;;26.60;43.99;100836.66;3560525;40;20525;-80
2021/07/05 10:34:22;;;;;;;5.63;5.22;;;;;;;26.74;43.93;100844.75;3551786;40;20293;-77
2021/07/05 10:36:49;;;;;;;6.28;5.63;;;;;;;26.34;43.91;100852.75;3560830;40;20227;-82
2021/07/05 10:39:16;;;;;;;5.88;5.28;;;;;;;26.32;45.94;100850.19;3560649;40;20210;-76
2021/07/05 10:41:41;;;;;;;6.15;4.97;;;;;;;25.76;46.72;100862.28;3560925;40;20255;-76
2021/07/05 10:44:10;;;;;;;4.97;4.40;;;;;;;26.06;45.47;100855.75;3561334;40;20237;-78
2021/07/05 10:46:38;;;;;;;5.63;4.85;;;;;;;25.56;46.05;100856.16;3561508;40;20231;-77
2021/07/05 10:49:04;;;;;;;4.68;4.22;;;;;;;25.53;46.97;100856.28;3561298;40;20239;-77
2021/07/05 10:51:40;;;;;;;6.00;4.00;;;;;;;25.25;46.55;100864.41;3561521;40;20254;-78
2021/07/05 10:54:06;;;;;;;5.18;4.68;;;;;;;25.34;46.57;100845.72;3561569;40;20226;-77
2021/07/05 10:56:37;;;;;;;6.20;5.70;;;;;;;25.40;46.56;100853.31;3561725;40;20227;-76
2021/07/05 10:59:10;;;;;;;5.38;4.90;;;;;;;25.15;46.90;100854.34;3560854;40;20329;-78
2021/07/05 11:01:38;;;;;;;5.03;4.63;;;;;;;25.28;46.87;100858.22;3561918;40;20340;-76
2021/07/05 11:04:28;;;;;;;8.13;7.45;;;;;;;25.23;47.22;100850.50;3560321;40;20325;-78
2021/07/05 11:06:57;;;;;;;4.50;4.10;;;;;;;25.33;46.63;100838.75;3560865;40;20234;-78
2021/07/05 11:09:24;;;;;;;4.85;3.42;;;;;;;25.17;46.77;100844.63;3550560;40;20254;-78
2021/07/05 11:11:57;;;;;;;5.88;3.47;;;;;;;25.49;46.18;100850.31;3561733;40;20621;-78
2021/07/05 11:14:33;;;;;;;4.75;3.65;;;;;;;25.20;47.54;100853.25;3561987;40;20242;-79
2021/07/05 11:17:23;;;;;;;3.63;3.30;;;;;;;24.91;47.59;100843.06;3560534;40;20286;-78
2021/07/05 11:20:00;;;;;;;3.70;3.00;;;;;;;25.63;46.39;100847.97;3560378;40;20308;-78
2021/07/05 11:22:31;;;;;;;3.47;3.17;;;;;;;25.12;47.30;100842.22;3561353;40;20227;-78